Time;durP1;ratioP1;P1;durP2;ratioP2;P2;SDS_P1;SDS_P2;PMS_P1;PMS_P2;Temp;Humidity;BMP_temperature;BMP_pressure;BME280_temperature;BME280_humidity;BME280_pressure;Samples;Min_cycle;Max_cycle;Signal;HPM_P1;HPM_P2
2023/05/03 00:01:12;;;;;;;1.88;1.15;;;22.70;51.20;;;;;;4822723;29;20121;-72
2023/05/03 00:03:38;;;;;;;1.00;0.90;;;22.70;51.60;;;;;;4822310;29;20460;-72
2023/05/03 00:06:11;;;;;;;1.13;1.10;;;22.70;51.90;;;;;;4822518;29;20117;-72
2023/05/03 00:08:38;;;;;;;2.53;0.90;;;22.80;51.80;;;;;;4821060;29;20049;-72
2023/05/03 00:11:04;;;;;;;1.63;1.23;;;22.80;52.00;;;;;;4822269;29;20035;-71
2023/05/03 00:13:30;;;;;;;1.25;0.98;;;22.90;51.20;;;;;;4822550;29;20034;-72
2023/05/03 00:15:56;;;;;;;0.98;0.98;;;22.70;51.90;;;;;;4822418;29;20662;-72
2023/05/03 00:18:22;;;;;;;1.27;1.10;;;22.90;52.00;;;;;;4822651;29;20049;-72
2023/05/03 00:20:50;;;;;;;1.13;1.00;;;22.90;52.00;;;;;;4822662;29;20382;-72
2023/05/03 00:23:16;;;;;;;1.27;1.15;;;22.90;52.20;;;;;;4822124;29;20499;-72
2023/05/03 00:25:43;;;;;;;1.33;0.90;;;22.90;52.20;;;;;;4822360;29;20049;-71
2023/05/03 00:28:09;;;;;;;2.28;0.73;;;22.80;52.10;;;;;;4805116;29;20054;-72
2023/05/03 00:30:35;;;;;;;3.47;1.35;;;22.90;52.30;;;;;;4820990;29;20574;-72
2023/05/03 00:33:01;;;;;;;2.65;1.25;;;22.90;52.30;;;;;;4822162;29;20037;-72
2023/05/03 00:35:27;;;;;;;1.23;1.05;;;22.90;52.20;;;;;;4835041;29;20102;-72
2023/05/03 00:37:53;;;;;;;1.45;1.08;;;22.90;52.20;;;;;;4840415;29;20672;-72
2023/05/03 00:40:19;;;;;;;1.27;0.93;;;23.00;52.10;;;;;;4840387;29;20030;-72
2023/05/03 00:42:45;;;;;;;1.42;0.90;;;23.10;52.10;;;;;;4854327;29;20061;-72
2023/05/03 00:45:11;;;;;;;4.43;1.33;;;23.00;52.00;;;;;;4840194;29;20167;-72
2023/05/03 00:47:37;;;;;;;2.00;1.10;;;22.90;51.70;;;;;;4838951;29;20536;-72
2023/05/03 00:50:05;;;;;;;5.25;1.35;;;23.10;52.20;;;;;;4838914;29;20098;-72
2023/05/03 00:52:31;;;;;;;1.10;1.00;;;23.00;51.90;;;;;;4838779;29;20481;-72
2023/05/03 00:54:57;;;;;;;3.63;1.33;;;23.00;52.10;;;;;;4840241;29;20070;-72
2023/05/03 00:57:25;;;;;;;6.43;1.27;;;23.10;52.20;;;;;;4840397;29;20445;-72
2023/05/03 00:59:52;;;;;;;3.30;1.40;;;23.00;52.20;;;;;;4840273;29;20490;-71
2023/05/03 01:02:18;;;;;;;2.80;1.00;;;23.00;52.30;;;;;;4840210;29;20057;-71
2023/05/03 01:04:44;;;;;;;2.30;1.08;;;23.00;52.30;;;;;;4839958;29;20056;-72
2023/05/03 01:07:19;;;;;;;3.00;1.17;;;22.90;52.40;;;;;;4854318;29;20517;-72
2023/05/03 01:10:10;;;;;;;3.58;1.20;;;23.00;52.50;;;;;;4840976;29;20046;-72
2023/05/03 01:12:54;;;;;;;3.72;2.13;;;23.00;52.50;;;;;;4843432;29;20037;-72
2023/05/03 01:15:31;;;;;;;3.70;1.70;;;23.00;52.50;;;;;;4842006;29;20052;-72
2023/05/03 01:18:03;;;;;;;2.63;1.27;;;23.00;52.50;;;;;;4843627;29;20571;-72
2023/05/03 01:20:31;;;;;;;2.08;1.20;;;23.10;52.50;;;;;;4843315;29;20090;-72
2023/05/03 01:22:57;;;;;;;2.60;1.67;;;23.00;52.40;;;;;;4842986;29;20037;-72
2023/05/03 01:25:23;;;;;;;2.92;1.40;;;23.10;52.50;;;;;;4843145;29;20473;-71
2023/05/03 01:27:49;;;;;;;1.13;1.00;;;23.00;52.40;;;;;;4843004;29;20082;-71
2023/05/03 01:30:16;;;;;;;1.23;1.05;;;23.10;52.50;;;;;;4843295;29;20042;-71
2023/05/03 01:33:09;;;;;;;1.20;1.10;;;23.00;52.50;;;;;;4843143;29;20470;-72
2023/05/03 01:35:53;;;;;;;2.17;1.13;;;23.00;52.30;;;;;;4843098;29;20448;-71
2023/05/03 01:38:21;;;;;;;2.58;1.35;;;23.10;52.50;;;;;;4843065;29;20038;-72
2023/05/03 01:40:52;;;;;;;1.63;1.30;;;23.00;52.50;;;;;;4843048;29;20046;-72
2023/05/03 01:43:21;;;;;;;1.48;1.08;;;23.00;52.50;;;;;;4842786;29;20053;-71
2023/05/03 01:45:47;;;;;;;1.67;1.30;;;23.00;52.60;;;;;;4843023;29;20038;-71
2023/05/03 01:48:18;;;;;;;2.50;1.67;;;22.90;52.70;;;;;;4842726;29;20034;-72
2023/05/03 01:50:44;;;;;;;2.35;1.40;;;22.90;52.80;;;;;;4837613;29;20031;-72
2023/05/03 01:53:10;;;;;;;2.78;1.70;;;22.90;52.90;;;;;;4823147;29;20075;-71
2023/05/03 01:55:36;;;;;;;1.23;1.13;;;22.90;52.80;;;;;;4821916;29;20494;-71
2023/05/03 01:58:03;;;;;;;4.63;1.50;;;22.80;52.70;;;;;;4822952;29;20490;-71
2023/05/03 02:00:29;;;;;;;2.03;1.73;;;22.90;52.90;;;;;;4824276;29;20125;-72
2023/05/03 02:02:55;;;;;;;2.50;1.23;;;22.90;52.90;;;;;;4822799;29;20195;-71
2023/05/03 02:05:21;;;;;;;3.22;1.20;;;22.90;52.90;;;;;;4824144;29;20813;-72
2023/05/03 02:07:47;;;;;;;1.42;1.20;;;22.90;52.90;;;;;;4824243;29;20103;-71
2023/05/03 02:10:13;;;;;;;1.70;1.45;;;22.90;52.80;;;;;;4838456;29;20483;-72
2023/05/03 02:12:41;;;;;;;1.25;1.10;;;22.80;52.70;;;;;;4824135;29;20034;-72
2023/05/03 02:15:07;;;;;;;3.90;1.48;;;22.80;52.60;;;;;;4837970;29;20038;-72
2023/05/03 02:17:34;;;;;;;3.50;1.52;;;22.90;52.60;;;;;;4823848;29;20458;-71
2023/05/03 02:20:00;;;;;;;2.90;1.65;;;22.90;52.70;;;;;;4821751;29;20039;-72
2023/05/03 02:22:26;;;;;;;3.40;2.00;;;22.90;52.60;;;;;;4821915;29;20052;-72
2023/05/03 02:24:53;;;;;;;4.47;1.83;;;22.80;52.50;;;;;;4837763;29;20050;-72
2023/05/03 02:27:19;;;;;;;7.82;4.20;;;22.90;52.70;;;;;;4823862;29;20049;-71
2023/05/03 02:29:45;;;;;;;4.28;1.77;;;22.80;52.60;;;;;;4822841;29;20129;-72
2023/05/03 02:32:12;;;;;;;6.20;1.60;;;22.70;52.60;;;;;;4837419;29;20037;-72
2023/05/03 02:34:38;;;;;;;3.67;1.73;;;22.70;52.70;;;;;;4840816;29;20504;-72
2023/05/03 02:37:06;;;;;;;2.78;1.90;;;22.60;52.70;;;;;;4840696;29;20046;-72
2023/05/03 02:39:33;;;;;;;2.25;1.40;;;22.70;52.80;;;;;;4840784;29;20550;-72
2023/05/03 02:41:59;;;;;;;3.88;1.50;;;22.60;52.90;;;;;;4841662;29;20121;-72
2023/05/03 02:44:26;;;;;;;11.05;2.17;;;22.60;52.80;;;;;;4840497;29;20049;-71
2023/05/03 02:46:53;;;;;;;3.67;1.80;;;22.50;52.80;;;;;;4841796;29;20086;-72
2023/05/03 02:49:20;;;;;;;2.50;1.70;;;22.60;52.70;;;;;;4856146;29;20034;-72
2023/05/03 02:51:46;;;;;;;3.72;2.25;;;22.60;52.70;;;;;;4855859;29;20116;-71
2023/05/03 02:54:12;;;;;;;7.53;1.65;;;22.60;52.60;;;;;;4841622;29;20567;-72
2023/05/03 02:56:38;;;;;;;7.18;1.90;;;22.60;52.70;;;;;;4855769;29;20502;-72
2023/05/03 02:59:04;;;;;;;9.27;1.90;;;22.80;52.70;;;;;;4840693;29;20121;-72
2023/05/03 03:01:32;;;;;;;3.80;1.75;;;22.70;52.70;;;;;;4840101;29;20106;-72
2023/05/03 03:03:59;;;;;;;4.85;2.10;;;22.60;52.50;;;;;;4840322;29;20038;-72
2023/05/03 03:06:25;;;;;;;4.18;2.33;;;22.60;52.50;;;;;;4841376;29;20547;-72
2023/05/03 03:08:52;;;;;;;10.77;1.90;;;22.60;52.50;;;;;;4840182;29;20044;-72
2023/05/03 03:11:18;;;;;;;5.40;2.45;;;22.70;52.60;;;;;;4840206;29;20063;-72
2023/05/03 03:13:45;;;;;;;5.70;1.83;;;22.60;52.50;;;;;;4839947;29;20046;-71
2023/05/03 03:16:12;;;;;;;5.22;2.20;;;22.70;52.60;;;;;;4841551;29;20114;-72
2023/05/03 03:18:38;;;;;;;5.55;2.70;;;22.60;52.60;;;;;;4840039;29;20033;-71
2023/05/03 03:21:04;;;;;;;7.43;2.30;;;22.50;52.60;;;;;;4839793;29;20066;-72
2023/05/03 03:23:32;;;;;;;2.90;1.67;;;22.60;52.60;;;;;;4839684;29;20045;-72
2023/05/03 03:25:58;;;;;;;6.57;1.88;;;22.60;52.50;;;;;;4855217;29;20041;-72
2023/05/03 03:28:25;;;;;;;6.20;2.20;;;22.60;52.20;;;;;;4839890;29;20044;-71
2023/05/03 03:30:52;;;;;;;2.10;1.63;;;22.60;52.00;;;;;;4839848;29;20045;-72
2023/05/03 03:33:24;;;;;;;3.10;1.48;;;22.60;52.10;;;;;;4839519;29;20048;-71
2023/05/03 03:35:50;;;;;;;6.47;2.17;;;22.60;52.00;;;;;;4839746;29;20582;-71
2023/05/03 03:38:18;;;;;;;8.35;3.13;;;22.70;52.00;;;;;;4820422;29;20096;-72
2023/05/03 03:40:55;;;;;;;6.30;2.53;;;22.70;52.00;;;;;;4805120;29;20116;-72
2023/05/03 03:43:21;;;;;;;3.60;1.75;;;22.60;52.20;;;;;;4820324;29;20085;-72
2023/05/03 03:45:48;;;;;;;3.78;1.88;;;22.70;52.20;;;;;;4805033;29;20042;-72
2023/05/03 03:48:15;;;;;;;5.00;1.60;;;22.60;51.90;;;;;;4805115;29;20453;-72
2023/05/03 03:50:42;;;;;;;3.90;1.67;;;22.80;52.00;;;;;;4805165;29;20116;-72
2023/05/03 03:53:09;;;;;;;3.55;1.80;;;22.70;51.90;;;;;;4804915;29;20125;-71
2023/05/03 03:55:38;;;;;;;4.70;1.60;;;22.80;51.80;;;;;;4787147;29;20113;-71
2023/05/03 03:58:05;;;;;;;1.23;1.13;;;22.90;51.90;;;;;;4786665;29;20042;-72
2023/05/03 04:00:35;;;;;;;2.55;1.35;;;22.90;51.90;;;;;;4802101;29;20042;-72
2023/05/03 04:03:08;;;;;;;1.40;1.30;;;22.90;51.90;;;;;;4786548;29;20058;-72
2023/05/03 04:05:35;;;;;;;1.77;1.40;;;22.90;51.90;;;;;;4786910;29;20062;-72
2023/05/03 04:08:01;;;;;;;7.10;2.03;;;22.80;51.80;;;;;;4786806;29;20070;-72
2023/05/03 04:10:29;;;;;;;6.13;2.22;;;22.80;51.70;;;;;;4786722;29;20096;-71
2023/05/03 04:12:56;;;;;;;3.70;1.80;;;22.90;51.90;;;;;;4801848;29;20042;-72
2023/05/03 04:15:22;;;;;;;6.35;1.90;;;22.90;52.10;;;;;;4796904;29;20051;-71
2023/05/03 04:17:48;;;;;;;6.20;1.70;;;22.80;52.00;;;;;;4836180;29;20044;-71
2023/05/03 04:20:16;;;;;;;2.78;1.67;;;22.70;52.10;;;;;;4834753;29;20172;-72
2023/05/03 04:22:45;;;;;;;3.05;1.83;;;22.80;52.00;;;;;;4821045;29;20035;-71
2023/05/03 04:25:15;;;;;;;2.65;1.65;;;22.70;52.10;;;;;;4832225;29;20494;-72
2023/05/03 04:27:46;;;;;;;2.33;1.70;;;22.70;52.00;;;;;;4839090;29;20487;-72
2023/05/03 04:30:14;;;;;;;3.45;1.85;;;22.70;52.00;;;;;;4854512;29;20050;-72
2023/05/03 04:32:42;;;;;;;5.00;1.70;;;22.70;52.10;;;;;;4824303;29;20501;-71
2023/05/03 04:35:11;;;;;;;7.60;1.55;;;22.60;52.10;;;;;;4854209;29;20069;-71
2023/05/03 04:37:40;;;;;;;3.90;1.88;;;22.60;52.10;;;;;;4834169;29;20156;-70
2023/05/03 04:40:11;;;;;;;5.70;2.20;;;22.60;51.80;;;;;;4834839;29;20402;-73
2023/05/03 04:42:42;;;;;;;3.95;1.90;;;22.40;45.20;;;;;;4803259;29;20091;-70
2023/05/03 04:45:10;;;;;;;3.65;1.80;;;22.70;46.00;;;;;;4835692;29;20050;-73
2023/05/03 04:47:36;;;;;;;3.28;2.17;;;23.00;46.50;;;;;;4823031;29;20114;-71
2023/05/03 04:50:02;;;;;;;5.53;1.88;;;23.00;47.40;;;;;;4820213;29;20034;-75
2023/05/03 04:52:29;;;;;;;3.85;2.10;;;23.20;47.50;;;;;;4823597;29;20065;-73
2023/05/03 04:54:55;;;;;;;3.40;1.23;;;23.20;49.20;;;;;;4821485;29;20038;-74
2023/05/03 04:57:23;;;;;;;2.45;1.70;;;23.30;48.20;;;;;;4832639;29;20062;-72
2023/05/03 04:59:49;;;;;;;9.70;2.20;;;23.50;48.80;;;;;;4836761;29;20046;-72
2023/05/03 05:02:17;;;;;;;5.55;2.35;;;23.50;48.40;;;;;;4822135;29;20111;-70
2023/05/03 05:04:43;;;;;;;3.15;2.28;;;23.60;49.20;;;;;;4836768;29;20495;-70
2023/05/03 05:07:10;;;;;;;3.65;1.98;;;23.40;49.20;;;;;;4823752;29;20473;-70
2023/05/03 05:09:36;;;;;;;5.72;2.85;;;23.50;51.40;;;;;;4836501;29;20114;-70
2023/05/03 05:12:05;;;;;;;5.28;1.92;;;23.70;48.80;;;;;;4822357;29;20042;-70
2023/05/03 05:14:38;;;;;;;2.35;2.05;;;23.50;52.20;;;;;;4823605;29;20027;-72
2023/05/03 05:17:07;;;;;;;9.40;2.40;;;23.60;51.50;;;;;;4837692;29;20030;-70
2023/05/03 05:19:33;;;;;;;6.93;2.10;;;23.70;49.60;;;;;;4837832;29;20407;-69
2023/05/03 05:21:59;;;;;;;6.43;2.70;;;23.70;51.10;;;;;;4823379;29;20453;-71
2023/05/03 05:24:35;;;;;;;3.50;2.15;;;23.70;51.30;;;;;;4838371;29;20049;-69
2023/05/03 05:27:01;;;;;;;5.30;2.33;;;23.70;51.00;;;;;;4822948;29;20091;-71
2023/05/03 05:29:28;;;;;;;3.67;2.17;;;23.60;51.20;;;;;;4838081;29;20034;-69
2023/05/03 05:31:55;;;;;;;2.60;2.05;;;23.70;49.80;;;;;;4837420;29;20079;-70
2023/05/03 05:34:21;;;;;;;6.68;2.42;;;23.60;51.40;;;;;;4837711;29;20050;-69
2023/05/03 05:36:50;;;;;;;4.72;2.00;;;23.80;57.70;;;;;;4837924;29;20027;-70
2023/05/03 05:39:17;;;;;;;3.97;2.22;;;23.70;57.70;;;;;;4784076;29;20055;-72
2023/05/03 05:41:43;;;;;;;7.55;2.47;;;23.80;56.10;;;;;;4784108;30;20050;-71
2023/05/03 05:44:12;;;;;;;2.65;2.00;;;23.70;52.20;;;;;;4784389;29;20135;-70
2023/05/03 05:46:38;;;;;;;5.93;2.03;;;23.70;54.50;;;;;;4784124;30;20049;-70
2023/05/03 05:49:04;;;;;;;5.72;2.42;;;23.80;51.80;;;;;;4785335;30;20149;-70
2023/05/03 05:51:30;;;;;;;2.92;1.95;;;23.60;49.80;;;;;;4785361;29;20043;-70
2023/05/03 05:53:57;;;;;;;4.15;1.92;;;23.70;51.60;;;;;;4768024;29;21697;-70
2023/05/03 05:56:25;;;;;;;4.43;1.98;;;23.80;47.30;;;;;;4781431;29;20039;-69
2023/05/03 05:58:51;;;;;;;4.43;2.05;;;23.70;49.20;;;;;;4782067;29;20039;-70
2023/05/03 06:01:18;;;;;;;3.25;2.20;;;23.80;47.70;;;;;;4781635;29;20039;-70
2023/05/03 06:03:44;;;;;;;6.68;2.15;;;23.80;48.70;;;;;;4769817;30;20081;-70
2023/05/03 06:06:10;;;;;;;11.07;2.22;;;23.70;49.00;;;;;;4769703;29;20050;-69
2023/05/03 06:08:36;;;;;;;5.88;2.13;;;23.80;48.40;;;;;;4794462;29;20548;-69
2023/05/03 06:11:04;;;;;;;4.18;2.53;;;23.70;51.50;;;;;;4824702;29;20077;-68
2023/05/03 06:13:32;;;;;;;5.10;1.92;;;23.90;52.30;;;;;;4822878;29;20083;-68
2023/05/03 06:15:58;;;;;;;6.57;1.83;;;23.90;52.00;;;;;;4792451;29;20483;-68
2023/05/03 06:18:25;;;;;;;3.47;2.40;;;23.80;51.60;;;;;;4822575;29;20042;-67
2023/05/03 06:20:51;;;;;;;12.15;2.00;;;23.80;51.10;;;;;;4821592;29;20034;-68
2023/05/03 06:23:18;;;;;;;2.50;1.58;;;23.80;50.80;;;;;;4824939;29;20034;-69
2023/05/03 06:25:47;;;;;;;2.17;1.77;;;23.70;50.90;;;;;;4835887;29;20467;-68
2023/05/03 06:28:13;;;;;;;6.47;1.73;;;23.90;50.30;;;;;;4822289;29;20042;-67
2023/05/03 06:30:39;;;;;;;4.63;2.05;;;23.80;50.50;;;;;;4822159;29;20034;-68
2023/05/03 06:33:13;;;;;;;4.40;2.35;;;23.70;48.30;;;;;;4837127;29;20038;-67
2023/05/03 06:35:40;;;;;;;2.25;1.50;;;23.70;49.50;;;;;;4821085;29;20046;-67
2023/05/03 06:38:07;;;;;;;0.77;0.77;;;23.80;49.60;;;;;;4823457;29;20090;-68
2023/05/03 06:40:34;;;;;;;1.15;1.10;;;23.90;49.20;;;;;;4836912;29;20049;-68
2023/05/03 06:43:00;;;;;;;1.80;1.30;;;23.80;48.30;;;;;;4821736;29;20046;-68
2023/05/03 06:45:35;;;;;;;5.57;1.90;;;23.80;48.30;;;;;;4821506;29;20039;-68
2023/05/03 06:48:01;;;;;;;3.25;1.65;;;23.90;48.20;;;;;;4823527;29;20038;-67
2023/05/03 06:50:27;;;;;;;0.22;0.22;;;23.80;47.00;;;;;;4837172;29;20077;-66
2023/05/03 06:52:53;;;;;;;1.70;1.48;;;23.80;47.40;;;;;;4837200;29;20740;-67
2023/05/03 06:55:19;;;;;;;1.05;0.93;;;23.80;47.10;;;;;;4821239;29;20076;-66
2023/05/03 06:57:47;;;;;;;5.78;1.85;;;23.90;46.70;;;;;;4823631;29;20046;-68
2023/05/03 07:00:14;;;;;;;0.70;0.55;;;23.80;46.50;;;;;;4823180;29;20559;-67
2023/05/03 07:02:41;;;;;;;0.95;0.65;;;23.80;45.70;;;;;;4836981;29;20058;-67
2023/05/03 07:05:07;;;;;;;1.08;1.08;;;23.90;45.60;;;;;;4822868;29;20049;-67
2023/05/03 07:07:33;;;;;;;2.30;1.48;;;23.80;44.60;;;;;;4821729;29;20046;-68
2023/05/03 07:09:59;;;;;;;4.93;1.92;;;23.80;44.60;;;;;;4821395;29;20119;-67
2023/05/03 07:12:27;;;;;;;2.20;1.27;;;23.60;43.10;;;;;;4823253;29;20042;-67
2023/05/03 07:14:54;;;;;;;0.50;0.50;;;23.70;44.10;;;;;;4822263;29;20034;-66
2023/05/03 07:17:23;;;;;;;2.45;1.35;;;23.70;45.00;;;;;;4822959;29;20039;-69
2023/05/03 07:19:52;;;;;;;1.65;0.60;;;23.60;44.70;;;;;;4823036;29;20456;-68
2023/05/03 07:22:24;;;;;;;1.30;1.08;;;23.60;45.10;;;;;;4822819;29;20042;-68
2023/05/03 07:24:53;;;;;;;7.95;2.10;;;23.70;45.10;;;;;;4822221;29;20066;-68
2023/05/03 07:27:20;;;;;;;2.83;1.10;;;23.70;45.30;;;;;;4821699;29;20502;-69
2023/05/03 07:29:46;;;;;;;3.22;1.60;;;23.60;45.10;;;;;;4823060;29;20046;-68
2023/05/03 07:32:12;;;;;;;4.05;1.58;;;23.70;45.20;;;;;;4822628;29;20047;-69
2023/05/03 07:34:38;;;;;;;1.38;1.27;;;23.60;44.90;;;;;;4822143;29;20046;-68
2023/05/03 07:37:04;;;;;;;1.42;1.30;;;23.70;44.50;;;;;;4822551;29;20062;-69
2023/05/03 07:39:30;;;;;;;4.70;1.60;;;23.60;44.40;;;;;;4822702;29;20043;-69
2023/05/03 07:41:56;;;;;;;2.05;1.58;;;23.70;44.40;;;;;;4821573;29;20057;-68
2023/05/03 07:44:22;;;;;;;1.75;1.13;;;23.60;43.90;;;;;;4820652;29;20054;-68
2023/05/03 07:46:48;;;;;;;1.42;1.33;;;23.60;44.30;;;;;;4821629;29;20380;-69
2023/05/03 07:49:15;;;;;;;3.25;1.30;;;23.70;44.50;;;;;;4818820;29;20030;-69
2023/05/03 07:51:41;;;;;;;2.05;1.30;;;23.60;44.60;;;;;;4821506;29;20569;-68
2023/05/03 07:54:07;;;;;;;1.67;1.15;;;23.70;44.80;;;;;;4822476;29;20054;-69
2023/05/03 07:56:33;;;;;;;1.92;1.45;;;23.70;44.90;;;;;;4821919;29;20091;-70
2023/05/03 07:58:59;;;;;;;3.63;1.40;;;23.60;44.20;;;;;;4822125;29;20101;-69
2023/05/03 08:01:25;;;;;;;2.53;1.45;;;23.60;45.80;;;;;;4824443;29;20026;-69
2023/05/03 08:03:52;;;;;;;3.10;1.90;;;23.60;44.70;;;;;;4817787;29;20086;-69
2023/05/03 08:06:18;;;;;;;2.67;1.08;;;23.60;46.40;;;;;;4819955;29;20046;-69
2023/05/03 08:08:45;;;;;;;1.30;1.20;;;23.60;46.90;;;;;;4818406;29;20034;-69
2023/05/03 08:11:11;;;;;;;7.80;1.10;;;23.70;47.10;;;;;;4817796;29;20109;-69
2023/05/03 08:13:37;;;;;;;1.38;1.27;;;23.70;47.00;;;;;;4820854;29;20083;-69
2023/05/03 08:16:04;;;;;;;5.03;1.30;;;23.50;46.20;;;;;;4831878;29;20405;-70
2023/05/03 08:18:30;;;;;;;1.80;1.58;;;23.50;48.60;;;;;;4820491;29;20031;-68
2023/05/03 08:20:57;;;;;;;2.85;1.50;;;23.60;47.90;;;;;;4824074;29;20045;-70
2023/05/03 08:23:24;;;;;;;1.25;1.00;;;23.50;48.80;;;;;;4825167;29;20038;-69
2023/05/03 08:25:51;;;;;;;2.05;1.40;;;23.60;48.60;;;;;;4824261;29;20189;-66
2023/05/03 08:28:17;;;;;;;1.27;1.20;;;23.70;47.80;;;;;;4823293;29;20042;-70
2023/05/03 08:30:43;;;;;;;2.50;1.52;;;23.60;48.00;;;;;;4823968;29;20054;-68
2023/05/03 08:33:09;;;;;;;1.45;1.35;;;23.60;46.70;;;;;;4816730;29;20039;-68
2023/05/03 08:35:36;;;;;;;2.40;1.48;;;23.60;48.10;;;;;;4822046;29;20480;-69
2023/05/03 08:38:03;;;;;;;1.23;1.13;;;23.60;48.10;;;;;;4824230;29;20048;-69
2023/05/03 08:40:35;;;;;;;0.80;0.80;;;23.60;48.30;;;;;;4824741;29;20038;-69
2023/05/03 08:43:14;;;;;;;1.90;1.30;;;23.60;48.30;;;;;;4825317;29;20113;-69
2023/05/03 08:45:40;;;;;;;2.50;1.83;;;23.60;46.40;;;;;;4825188;29;20156;-69
2023/05/03 08:48:07;;;;;;;3.53;1.33;;;23.60;45.50;;;;;;4824557;29;20050;-69
2023/05/03 08:50:40;;;;;;;2.67;1.70;;;23.60;47.80;;;;;;4825217;29;20038;-68
2023/05/03 08:53:08;;;;;;;1.58;1.20;;;23.40;44.70;;;;;;4825057;29;20505;-69
2023/05/03 08:55:34;;;;;;;1.20;1.05;;;23.60;47.00;;;;;;4824256;29;20484;-69
2023/05/03 08:58:03;;;;;;;3.47;1.50;;;23.50;46.90;;;;;;4822920;29;20062;-69
2023/05/03 09:00:29;;;;;;;4.47;1.30;;;23.50;48.40;;;;;;4837742;29;20371;-68
2023/05/03 09:02:55;;;;;;;2.90;1.00;;;23.50;48.50;;;;;;4824326;29;20458;-69
2023/05/03 09:05:22;;;;;;;8.27;1.30;;;23.60;48.60;;;;;;4807335;29;20139;-69
2023/05/03 09:08:08;;;;;;;5.28;1.40;;;23.50;47.70;;;;;;4837929;29;20042;-68
2023/05/03 09:10:39;;;;;;;1.10;1.02;;;23.40;47.30;;;;;;4824042;29;20041;-69
2023/05/03 09:13:06;;;;;;;2.97;1.02;;;23.50;48.80;;;;;;4823197;29;20422;-69
2023/05/03 09:15:33;;;;;;;1.73;0.80;;;23.50;48.80;;;;;;4833848;29;20034;-68
2023/05/03 09:18:11;;;;;;;1.00;1.00;;;23.50;48.80;;;;;;4824761;29;20037;-70
2023/05/03 09:20:39;;;;;;;2.05;1.10;;;23.50;49.00;;;;;;4824627;29;20380;-70
2023/05/03 09:23:09;;;;;;;1.48;1.13;;;23.50;48.40;;;;;;4824472;29;20073;-70
2023/05/03 09:25:42;;;;;;;2.13;1.00;;;23.40;49.00;;;;;;4823684;29;20486;-71
2023/05/03 09:28:08;;;;;;;6.60;1.55;;;23.40;49.10;;;;;;4823886;29;20042;-70
2023/05/03 09:30:34;;;;;;;3.70;1.55;;;23.40;49.00;;;;;;4823930;29;20034;-69
2023/05/03 09:33:00;;;;;;;1.95;1.00;;;23.40;49.00;;;;;;4824447;29;20398;-70
2023/05/03 09:35:27;;;;;;;6.35;1.00;;;23.60;49.10;;;;;;4824417;29;20126;-70
2023/05/03 09:37:53;;;;;;;1.50;1.10;;;23.50;48.60;;;;;;4823918;29;20129;-70
2023/05/03 09:40:19;;;;;;;1.95;1.10;;;23.50;48.00;;;;;;4823539;29;20476;-70
2023/05/03 09:43:05;;;;;;;5.13;1.85;;;23.40;48.70;;;;;;4824356;29;20125;-70
2023/05/03 09:45:33;;;;;;;1.40;1.17;;;23.50;48.80;;;;;;4824175;29;20380;-70
2023/05/03 09:48:01;;;;;;;2.00;1.00;;;23.50;49.10;;;;;;4823630;29;20125;-70
2023/05/03 09:50:27;;;;;;;1.90;1.73;;;23.50;49.10;;;;;;4821827;29;20107;-70
2023/05/03 09:52:56;;;;;;;3.65;1.50;;;23.60;45.60;;;;;;4819622;29;20054;-71
2023/05/03 09:55:24;;;;;;;1.55;0.80;;;23.60;49.00;;;;;;4821719;29;20042;-71
2023/05/03 09:57:54;;;;;;;6.68;1.30;;;23.50;47.80;;;;;;4822684;29;20030;-73
2023/05/03 10:00:20;;;;;;;6.85;1.63;;;23.50;50.30;;;;;;4821841;29;20734;-70
2023/05/03 10:02:49;;;;;;;5.10;1.08;;;23.70;51.70;;;;;;4822646;29;20050;-70
2023/05/03 10:05:19;;;;;;;2.78;1.20;;;23.80;50.20;;;;;;4821296;29;20049;-70
2023/05/03 10:07:49;;;;;;;4.30;2.42;;;23.90;50.70;;;;;;4824232;29;20049;-68
2023/05/03 10:10:16;;;;;;;5.50;1.60;;;24.10;44.90;;;;;;4819040;29;20074;-72
2023/05/03 10:12:44;;;;;;;4.15;1.98;;;24.00;44.70;;;;;;4823792;29;20495;-70
2023/05/03 10:15:14;;;;;;;2.03;1.35;;;24.10;44.70;;;;;;4823052;29;20043;-69
2023/05/03 10:17:42;;;;;;;5.20;1.88;;;24.10;45.10;;;;;;4822810;29;20496;-70
2023/05/03 10:20:46;;;;;;;3.30;2.17;;;24.00;41.70;;;;;;4823354;29;20642;-70
2023/05/03 10:23:16;;;;;;;3.67;1.63;;;24.00;40.50;;;;;;4805269;29;20496;-70
2023/05/03 10:26:06;;;;;;;2.92;1.60;;;24.00;40.50;;;;;;4822320;29;20046;-71
2023/05/03 10:28:37;;;;;;;2.70;1.20;;;23.80;40.90;;;;;;4766659;30;20592;-70
2023/05/03 10:31:04;;;;;;;1.98;1.83;;;23.90;46.10;;;;;;4765268;30;20495;-69
2023/05/03 10:33:33;;;;;;;5.13;1.70;;;24.20;51.40;;;;;;4765379;30;20056;-70
2023/05/03 10:36:05;;;;;;;4.35;1.65;;;24.50;50.50;;;;;;4767396;30;20078;-69
2023/05/03 10:38:32;;;;;;;5.30;1.45;;;24.50;40.90;;;;;;4767288;30;20442;-69
2023/05/03 10:41:02;;;;;;;1.90;1.40;;;24.40;39.90;;;;;;4764712;30;20042;-69
2023/05/03 10:43:28;;;;;;;2.60;1.60;;;24.30;40.50;;;;;;4766074;30;20081;-70
2023/05/03 10:45:57;;;;;;;2.67;1.15;;;24.10;38.70;;;;;;4765099;30;20158;-69
2023/05/03 10:48:24;;;;;;;2.25;1.50;;;24.20;46.20;;;;;;4766039;30;20055;-68
2023/05/03 10:50:51;;;;;;;3.03;1.35;;;24.30;45.40;;;;;;4765704;30;20040;-70
2023/05/03 10:53:43;;;;;;;2.60;1.30;;;24.30;44.60;;;;;;4764739;30;20080;-69
2023/05/03 10:56:14;;;;;;;1.52;1.10;;;24.20;47.30;;;;;;4728730;30;20048;-68
2023/05/03 10:58:40;;;;;;;1.20;1.10;;;24.30;47.70;;;;;;4729732;30;21048;-69
2023/05/03 11:01:10;;;;;;;7.35;1.50;;;24.30;49.30;;;;;;4729403;30;20040;-70
2023/05/03 11:03:50;;;;;;;2.00;1.73;;;24.30;49.20;;;;;;4728258;30;20438;-70
2023/05/03 11:06:34;;;;;;;2.85;1.45;;;24.30;48.70;;;;;;4770488;29;20052;-69
2023/05/03 11:09:03;;;;;;;1.42;1.33;;;24.40;49.40;;;;;;4781334;29;20040;-69
2023/05/03 11:11:30;;;;;;;2.17;1.48;;;24.40;50.70;;;;;;4766113;30;20512;-69
2023/05/03 11:13:56;;;;;;;1.67;1.25;;;24.40;50.30;;;;;;4781773;29;20051;-69
2023/05/03 11:16:23;;;;;;;2.88;1.17;;;24.40;50.10;;;;;;4782070;29;20043;-69
2023/05/03 11:18:50;;;;;;;6.55;1.20;;;24.50;50.90;;;;;;4781708;29;20408;-69
2023/05/03 11:21:17;;;;;;;2.55;0.95;;;24.30;50.60;;;;;;4782097;29;20054;-69
2023/05/03 11:23:43;;;;;;;2.70;1.50;;;24.40;51.20;;;;;;4783067;29;20181;-69
2023/05/03 11:26:10;;;;;;;2.38;1.55;;;24.40;50.50;;;;;;4766622;29;20455;-68
2023/05/03 11:28:40;;;;;;;2.03;1.20;;;24.40;50.60;;;;;;4782462;29;20712;-69
2023/05/03 11:31:08;;;;;;;1.00;0.90;;;24.30;50.00;;;;;;4780253;29;20039;-69
2023/05/03 11:33:36;;;;;;;2.35;1.45;;;24.40;50.30;;;;;;4803662;29;20054;-68
2023/05/03 11:36:05;;;;;;;5.35;1.48;;;24.30;50.20;;;;;;4822529;29;20042;-72
2023/05/03 11:38:34;;;;;;;1.52;1.30;;;24.30;48.50;;;;;;4821237;29;20034;-69
2023/05/03 11:41:08;;;;;;;1.88;1.23;;;24.20;47.80;;;;;;4820947;29;20035;-67
2023/05/03 11:43:46;;;;;;;3.92;1.23;;;24.20;42.60;;;;;;4818284;29;20046;-67
2023/05/03 11:46:16;;;;;;;1.27;1.17;;;24.10;44.10;;;;;;4823547;29;20034;-66
2023/05/03 11:48:43;;;;;;;4.15;1.50;;;24.10;47.60;;;;;;4821627;29;20057;-68
2023/05/03 11:51:10;;;;;;;4.47;1.05;;;24.10;45.60;;;;;;4819665;29;20037;-68
2023/05/03 11:53:38;;;;;;;0.70;0.70;;;24.10;46.00;;;;;;4821871;29;20042;-68
2023/05/03 11:56:08;;;;;;;1.27;0.70;;;24.10;46.70;;;;;;4820402;29;20494;-69
2023/05/03 11:58:34;;;;;;;1.40;1.30;;;24.00;48.30;;;;;;4822318;29;20053;-68
2023/05/03 12:01:00;;;;;;;1.25;1.05;;;24.10;42.10;;;;;;4831487;29;20042;-69
2023/05/03 12:03:28;;;;;;;2.97;1.00;;;24.10;46.00;;;;;;4835558;29;20058;-65
2023/05/03 12:05:55;;;;;;;1.17;0.82;;;24.20;45.60;;;;;;4827417;29;20037;-67
2023/05/03 12:08:29;;;;;;;6.90;1.15;;;24.10;42.30;;;;;;4821376;29;20050;-67
2023/05/03 12:10:55;;;;;;;3.38;1.35;;;24.00;36.20;;;;;;4820034;29;20100;-67
2023/05/03 12:13:34;;;;;;;0.57;0.57;;;24.00;44.60;;;;;;4820741;29;20076;-67
2023/05/03 12:16:02;;;;;;;1.92;0.90;;;24.00;46.00;;;;;;4836072;29;20042;-68
2023/05/03 12:18:56;;;;;;;3.42;1.25;;;24.00;46.40;;;;;;4821561;29;20035;-68
2023/05/03 12:21:24;;;;;;;3.97;1.15;;;24.10;39.10;;;;;;4821198;29;20540;-66
2023/05/03 12:23:51;;;;;;;6.57;1.42;;;24.10;40.80;;;;;;4822038;29;20043;-67
2023/05/03 12:26:21;;;;;;;3.35;1.45;;;24.10;40.10;;;;;;4820342;29;20134;-68
2023/05/03 12:28:48;;;;;;;1.05;0.98;;;23.90;44.00;;;;;;4835867;29;20045;-67
2023/05/03 12:31:14;;;;;;;0.80;0.80;;;24.10;42.00;;;;;;4821831;29;20038;-68
2023/05/03 12:33:41;;;;;;;3.20;2.25;;;24.00;38.40;;;;;;4823160;29;20114;-67
2023/05/03 12:36:07;;;;;;;2.67;0.88;;;23.90;41.90;;;;;;4819576;29;20030;-68
2023/05/03 12:38:34;;;;;;;3.33;1.05;;;23.90;44.20;;;;;;4821983;29;20125;-68
2023/05/03 12:41:00;;;;;;;4.07;0.90;;;23.80;40.70;;;;;;4821011;29;20042;-68
2023/05/03 12:43:26;;;;;;;1.38;1.10;;;23.90;42.50;;;;;;4821982;29;20039;-68
2023/05/03 12:45:52;;;;;;;3.17;1.05;;;23.90;40.50;;;;;;4835699;29;20125;-69
2023/05/03 12:48:18;;;;;;;4.60;1.08;;;23.80;37.50;;;;;;4807648;29;20039;-68
2023/05/03 12:50:44;;;;;;;4.43;1.30;;;23.70;39.30;;;;;;4806732;29;20460;-68